Time;durP1;ratioP1;P1;durP2;ratioP2;P2;SDS_P1;SDS_P2;PMS_P1;PMS_P2;Temp;Humidity;BMP_temperature;BMP_pressure;BME280_temperature;BME280_humidity;BME280_pressure;Samples;Min_cycle;Max_cycle;Signal;HPM_P1;HPM_P2
2022/12/25 00:02:02;;;;;;;8.05;3.67;;;;;;;8.70;91.57;99787.81;5070597;28;20179;-89
2022/12/25 00:04:27;;;;;;;13.50;5.60;;;;;;;8.82;90.98;99799.41;5071218;28;20040;-89
2022/12/25 00:06:52;;;;;;;9.07;2.80;;;;;;;8.82;90.54;99801.31;5070238;28;20040;-89
2022/12/25 00:09:18;;;;;;;8.85;2.42;;;;;;;8.88;90.75;99805.72;5070009;28;20285;-88
2022/12/25 00:11:43;;;;;;;7.97;2.97;;;;;;;8.96;90.60;99813.44;5070054;28;20508;-89
2022/12/25 00:14:08;;;;;;;9.88;4.18;;;;;;;8.97;90.40;99801.47;5069590;28;20277;-90
2022/12/25 00:16:34;;;;;;;11.10;3.43;;;;;;;8.97;90.23;99798.75;5069959;28;20135;-89
2022/12/25 00:19:00;;;;;;;12.60;4.45;;;;;;;9.02;90.11;99799.91;5069678;28;20273;-89
2022/12/25 00:21:26;;;;;;;10.95;3.13;;;;;;;8.92;90.11;99789.72;5068666;28;20322;-89
2022/12/25 00:23:53;;;;;;;10.68;2.33;;;;;;;8.96;90.47;99791.69;5067577;28;20138;-89
2022/12/25 00:26:18;;;;;;;19.70;5.18;;;;;;;8.92;90.55;99793.28;5067159;28;20032;-89
2022/12/25 00:28:44;;;;;;;10.63;2.80;;;;;;;8.93;90.50;99803.06;5070942;28;20024;-88
2022/12/25 00:31:15;;;;;;;8.98;3.50;;;;;;;8.88;90.57;99797.56;5068577;28;20249;-89
2022/12/25 00:33:41;;;;;;;12.00;3.03;;;;;;;8.93;90.95;99797.63;5068692;28;20183;-89
2022/12/25 00:36:08;;;;;;;6.07;2.53;;;;;;;9.00;90.30;99794.72;5069717;28;20106;-89
2022/12/25 00:38:36;;;;;;;8.52;3.38;;;;;;;8.97;90.48;99792.53;5069359;28;20047;-89
2022/12/25 00:41:16;;;;;;;8.23;2.58;;;;;;;8.97;90.78;99787.88;5068772;28;20497;-89
2022/12/25 00:43:42;;;;;;;11.73;3.40;;;;;;;8.96;90.92;99794.41;5069493;28;20038;-90
2022/12/25 00:46:10;;;;;;;9.48;2.35;;;;;;;8.91;90.83;99788.91;5068981;28;20044;-90
2022/12/25 00:48:36;;;;;;;6.53;2.58;;;;;;;8.95;91.18;99789.25;5067267;28;20021;-89
2022/12/25 00:51:04;;;;;;;18.67;5.25;;;;;;;9.02;90.58;99783.59;5069162;28;20035;-89
2022/12/25 00:53:30;;;;;;;7.20;2.78;;;;;;;9.03;90.73;99790.69;5068041;28;20027;-89
2022/12/25 00:55:57;;;;;;;6.25;2.30;;;;;;;9.03;90.95;99786.03;5068606;28;20393;-90
2022/12/25 00:58:24;;;;;;;10.10;2.20;;;;;;;9.06;90.65;99785.56;5068692;28;20428;-89
2022/12/25 01:00:50;;;;;;;7.60;2.35;;;;;;;9.03;91.02;99787.97;5068211;28;20020;-89
2022/12/25 01:03:16;;;;;;;6.13;2.63;;;;;;;9.02;90.91;99783.59;5068771;28;20029;-89
2022/12/25 01:05:43;;;;;;;6.20;2.28;;;;;;;9.07;90.85;99783.66;5068006;28;20043;-89
2022/12/25 01:08:08;;;;;;;6.57;3.15;;;;;;;9.09;90.90;99795.91;5069196;28;20037;-89
2022/12/25 01:10:33;;;;;;;8.02;2.97;;;;;;;9.16;90.50;99801.16;5069284;28;20078;-89
2022/12/25 01:12:59;;;;;;;5.95;1.98;;;;;;;9.11;90.30;99790.25;5069881;28;20040;-89
2022/12/25 01:15:24;;;;;;;8.98;2.00;;;;;;;9.12;90.54;99783.72;5069422;28;20086;-89
2022/12/25 01:17:49;;;;;;;12.65;4.80;;;;;;;9.11;91.08;99776.63;5069348;28;20032;-90
2022/12/25 01:20:16;;;;;;;6.78;2.80;;;;;;;9.10;90.90;99781.25;5069473;28;20032;-90
2022/12/25 01:22:43;;;;;;;8.05;2.85;;;;;;;9.09;90.68;99785.03;5069460;28;20139;-89
2022/12/25 01:25:09;;;;;;;12.07;2.47;;;;;;;9.20;90.68;99796.03;5068264;28;20033;-89
2022/12/25 01:27:35;;;;;;;6.40;2.80;;;;;;;9.09;90.45;99792.38;5069447;28;20040;-89
2022/12/25 01:30:00;;;;;;;6.68;2.45;;;;;;;9.10;90.94;99796.75;5069380;28;20036;-89
2022/12/25 01:32:26;;;;;;;5.57;1.83;;;;;;;8.98;91.21;99794.97;5069511;28;20041;-89
2022/12/25 01:34:51;;;;;;;13.45;3.42;;;;;;;9.01;91.38;99792.84;5067603;28;20515;-89
2022/12/25 01:37:16;;;;;;;14.93;2.30;;;;;;;8.99;91.69;99796.63;5073283;28;20028;-89
2022/12/25 01:39:42;;;;;;;6.30;3.10;;;;;;;9.00;91.71;99794.72;5073272;28;20262;-89
2022/12/25 01:42:18;;;;;;;8.20;2.13;;;;;;;8.99;91.47;99788.47;5073720;28;20025;-89
2022/12/25 01:44:46;;;;;;;15.30;3.20;;;;;;;8.96;91.53;99788.97;5071835;28;20869;-89
2022/12/25 01:47:12;;;;;;;11.43;2.08;;;;;;;8.92;92.18;99781.56;5072747;28;20079;-89
2022/12/25 01:49:39;;;;;;;11.18;3.08;;;;;;;8.93;92.06;99775.88;5073544;28;20021;-90
2022/12/25 01:52:14;;;;;;;6.30;1.70;;;;;;;8.82;92.65;99772.22;5072028;28;20043;-89
2022/12/25 01:54:45;;;;;;;5.55;1.52;;;;;;;8.84;92.83;99756.47;5071799;28;20078;-90
2022/12/25 01:57:15;;;;;;;7.13;1.70;;;;;;;8.86;92.51;99764.38;5072003;28;20031;-89
2022/12/25 01:59:41;;;;;;;5.53;2.15;;;;;;;8.88;92.94;99756.78;5073366;28;20062;-89
2022/12/25 02:02:07;;;;;;;5.32;1.83;;;;;;;8.90;92.42;99760.06;5072910;28;20366;-89
2022/12/25 02:04:40;;;;;;;12.50;3.38;;;;;;;8.82;92.94;99763.25;5072475;28;20035;-89
2022/12/25 02:07:22;;;;;;;6.47;2.80;;;;;;;8.87;92.84;99777.72;5073028;28;20077;-89
2022/12/25 02:09:48;;;;;;;4.43;1.70;;;;;;;8.93;92.67;99781.31;5072528;28;20033;-89
2022/12/25 02:12:20;;;;;;;5.95;2.85;;;;;;;8.98;92.58;99786.00;5072983;28;20113;-89
2022/12/25 02:14:48;;;;;;;3.45;1.40;;;;;;;8.94;92.52;99782.97;5070099;28;20034;-89
2022/12/25 02:17:44;;;;;;;18.40;2.83;;;;;;;8.99;92.47;99791.19;5072354;28;20060;-89
2022/12/25 02:20:30;;;;;;;5.30;2.00;;;;;;;8.94;93.13;99793.84;5071570;28;20028;-89
2022/12/25 02:23:39;;;;;;;6.43;2.20;;;;;;;8.91;93.22;99799.78;5071968;28;20024;-89
2022/12/25 02:26:55;;;;;;;6.70;2.00;;;;;;;8.92;93.40;99801.44;5008432;28;20087;-89
2022/12/25 02:29:50;;;;;;;5.22;2.42;;;;;;;8.97;93.38;99795.25;5037683;28;20544;-89
2022/12/25 02:32:22;;;;;;;8.63;2.63;;;;;;;8.89;93.94;99796.47;5072113;28;20028;-89
2022/12/25 02:35:29;;;;;;;4.50;2.33;;;;;;;8.92;93.61;99801.44;5071683;28;20044;-89
2022/12/25 02:38:06;;;;;;;7.03;3.15;;;;;;;8.93;93.69;99803.06;5039011;28;20087;-89
2022/12/25 02:40:34;;;;;;;7.00;2.42;;;;;;;8.98;93.65;99797.69;5040812;28;20111;-89
2022/12/25 03:08:27;;;;;;;4.97;1.13;;;;;;;9.14;93.52;99789.72;5071553;28;20046;-90
2022/12/25 03:13:48;;;;;;;13.55;2.05;;;;;;;9.15;93.81;99788.66;5072151;28;20389;-89
2022/12/25 03:18:58;;;;;;;5.68;2.83;;;;;;;9.15;93.74;99788.66;5072283;28;20071;-90
2022/12/25 03:27:11;;;;;;;7.47;2.08;;;;;;;9.19;93.64;99792.47;5029303;28;20341;-90
2022/12/25 03:32:57;;;;;;;6.18;1.83;;;;;;;9.19;94.18;99778.88;5071174;28;20047;-90
2022/12/25 03:35:44;;;;;;;8.93;3.05;;;;;;;9.24;94.36;99769.97;5070596;28;20040;-89
2022/12/25 04:37:20;;;;;;;3.65;1.70;;;;;;;9.25;94.46;99736.25;5069217;28;20043;-89
2022/12/25 04:39:45;;;;;;;6.20;1.63;;;;;;;9.11;95.09;99738.56;5070074;28;20531;-88
2022/12/25 04:42:11;;;;;;;6.75;2.10;;;;;;;9.11;95.11;99733.91;5069805;28;20265;-90
2022/12/25 04:44:36;;;;;;;13.30;2.38;;;;;;;9.11;94.98;99731.19;5069818;28;20237;-90
2022/12/25 04:47:02;;;;;;;8.18;1.90;;;;;;;9.11;95.42;99744.81;5068580;28;20531;-90
2022/12/25 04:49:27;;;;;;;4.63;1.80;;;;;;;9.19;95.03;99745.44;5070031;28;20058;-90
2022/12/25 04:51:52;;;;;;;4.78;1.90;;;;;;;9.10;95.39;99743.16;5070097;28;20387;-89
2022/12/25 04:54:17;;;;;;;8.90;1.90;;;;;;;9.17;95.08;99737.50;5068459;28;20028;-89
2022/12/25 04:56:43;;;;;;;13.27;2.95;;;;;;;9.21;95.16;99719.59;5069778;28;20271;-89
2022/12/25 04:59:08;;;;;;;5.03;1.95;;;;;;;9.13;95.00;99717.38;5069391;28;20040;-89
2022/12/25 05:01:33;;;;;;;6.05;1.45;;;;;;;9.07;95.41;99712.94;5069073;28;20155;-89
2022/12/25 05:03:59;;;;;;;6.35;2.47;;;;;;;9.06;95.84;99714.00;5068926;28;20029;-90
2022/12/25 05:06:25;;;;;;;7.60;2.38;;;;;;;9.05;95.43;99707.75;5067990;28;20029;-90
2022/12/25 05:08:50;;;;;;;5.88;2.33;;;;;;;9.05;95.46;99709.66;5069188;28;20115;-89
2022/12/25 05:11:16;;;;;;;7.63;1.63;;;;;;;8.96;96.13;99710.13;5069595;28;20124;-89
2022/12/25 05:13:41;;;;;;;7.50;1.90;;;;;;;9.01;95.78;99717.50;5068225;28;20498;-89
2022/12/25 05:16:08;;;;;;;6.93;2.00;;;;;;;8.94;96.41;99706.84;5068746;28;20040;-89
2022/12/25 05:18:34;;;;;;;6.25;2.13;;;;;;;8.91;96.27;99711.97;5069624;28;20370;-89
2022/12/25 05:20:59;;;;;;;10.52;3.35;;;;;;;8.96;96.19;99701.97;5069043;28;20090;-89
2022/12/25 05:23:24;;;;;;;6.32;2.70;;;;;;;8.94;96.46;99695.13;5069087;28;20058;-89
2022/12/25 05:25:50;;;;;;;9.95;2.67;;;;;;;8.91;96.36;99701.09;5069034;28;20044;-89
2022/12/25 05:28:15;;;;;;;8.75;1.70;;;;;;;8.88;96.62;99702.41;5069017;28;20060;-90
2022/12/25 05:30:40;;;;;;;7.03;2.63;;;;;;;8.84;97.08;99695.84;5069002;28;20090;-89
2022/12/25 05:33:06;;;;;;;5.93;2.30;;;;;;;8.80;97.16;99697.41;5069040;28;20234;-89
2022/12/25 05:35:31;;;;;;;13.40;2.55;;;;;;;8.79;97.46;99698.50;5069061;28;20028;-90
2022/12/25 05:37:56;;;;;;;11.48;2.30;;;;;;;8.78;96.89;99696.84;5069561;28;20033;-89
2022/12/25 05:40:22;;;;;;;5.45;2.75;;;;;;;8.75;97.36;99696.28;5069462;28;20041;-89
2022/12/25 05:42:47;;;;;;;11.43;3.47;;;;;;;8.80;97.38;99692.00;5069249;28;20040;-89
2022/12/25 05:45:13;;;;;;;10.68;2.85;;;;;;;8.79;97.20;99687.63;5069411;28;20100;-89
2022/12/25 05:47:38;;;;;;;13.60;3.72;;;;;;;8.81;97.19;99680.03;5069179;28;20105;-88
2022/12/25 05:50:04;;;;;;;5.53;1.90;;;;;;;8.84;96.69;99679.53;5068366;28;20060;-89
2022/12/25 05:52:31;;;;;;;7.55;2.28;;;;;;;8.82;96.99;99684.41;5068193;28;20060;-89
2022/12/25 05:54:57;;;;;;;5.22;1.75;;;;;;;8.86;96.81;99680.09;5068383;28;20369;-89
2022/12/25 05:57:22;;;;;;;8.30;1.65;;;;;;;8.89;96.27;99682.28;5068797;28;20025;-89
2022/12/25 05:59:47;;;;;;;7.07;2.05;;;;;;;8.87;96.52;99679.00;5067879;28;20470;-89
2022/12/25 06:02:12;;;;;;;9.57;1.60;;;;;;;8.90;95.92;99683.94;5069187;28;20302;-89
2022/12/25 06:04:38;;;;;;;6.90;2.10;;;;;;;8.99;95.49;99687.84;5068671;28;20280;-89
2022/12/25 06:07:03;;;;;;;7.07;2.20;;;;;;;8.98;95.34;99685.38;5068324;28;20032;-89
2022/12/25 06:09:28;;;;;;;12.30;3.17;;;;;;;8.94;95.02;99679.63;5069223;28;20457;-89
2022/12/25 06:11:53;;;;;;;8.17;3.00;;;;;;;8.95;95.11;99697.59;5068921;28;20245;-89
2022/12/25 06:14:19;;;;;;;7.00;2.50;;;;;;;8.90;95.22;99691.28;5068195;28;20689;-90
2022/12/25 06:16:44;;;;;;;15.87;2.17;;;;;;;8.94;95.27;99682.34;5068239;28;20268;-89
2022/12/25 06:19:09;;;;;;;12.95;2.13;;;;;;;8.95;94.95;99688.63;5069096;28;20257;-89
2022/12/25 06:21:35;;;;;;;8.57;1.97;;;;;;;8.96;94.76;99682.94;5069641;28;20036;-90
2022/12/25 06:24:00;;;;;;;4.45;1.75;;;;;;;8.92;94.77;99678.25;5071811;28;20776;-89
2022/12/25 06:26:26;;;;;;;8.48;3.38;;;;;;;8.94;94.83;99663.31;5072543;28;20024;-89
2022/12/25 06:28:51;;;;;;;7.68;2.17;;;;;;;8.89;94.87;99665.19;5072258;28;20085;-89
2022/12/25 06:31:19;;;;;;;7.03;1.80;;;;;;;8.89;94.77;99670.63;5072496;28;20039;-89
2022/12/25 06:33:45;;;;;;;11.38;4.10;;;;;;;8.90;94.54;99659.47;5071481;28;20079;-89
2022/12/25 06:36:21;;;;;;;5.80;1.88;;;;;;;8.95;94.69;99664.16;5071712;28;20040;-89
2022/12/25 06:38:47;;;;;;;4.43;1.77;;;;;;;8.98;94.31;99650.88;5072270;28;20390;-89
2022/12/25 06:41:18;;;;;;;6.10;2.60;;;;;;;9.02;94.04;99648.44;5072435;28;20125;-88
2022/12/25 06:43:48;;;;;;;8.90;1.63;;;;;;;9.01;93.86;99648.72;5072341;28;20028;-89
2022/12/25 06:46:14;;;;;;;6.03;1.73;;;;;;;9.03;93.28;99641.13;5071250;28;20064;-89
2022/12/25 06:48:45;;;;;;;9.50;3.05;;;;;;;9.06;93.58;99618.81;5071677;28;20444;-89
2022/12/25 06:51:10;;;;;;;5.07;1.70;;;;;;;9.01;93.80;99629.66;5071949;28;20393;-89
2022/12/25 06:53:43;;;;;;;4.23;1.70;;;;;;;8.98;93.29;99629.09;5071507;28;20028;-89
2022/12/25 06:56:15;;;;;;;5.38;1.60;;;;;;;9.09;93.39;99629.19;5070793;28;20281;-88
2022/12/25 06:58:48;;;;;;;8.02;1.90;;;;;;;9.01;93.52;99626.94;5072140;28;20358;-89
2022/12/25 07:01:23;;;;;;;4.30;1.35;;;;;;;9.02;93.04;99620.41;5072367;28;20031;-89
2022/12/25 07:03:52;;;;;;;8.88;3.38;;;;;;;9.00;93.22;99628.84;5071938;28;20024;-89
2022/12/25 07:06:17;;;;;;;15.23;1.70;;;;;;;9.08;93.32;99631.09;5071468;28;20090;-89
2022/12/25 07:08:43;;;;;;;6.82;1.65;;;;;;;9.16;92.86;99629.81;5071551;28;20032;-89
2022/12/25 07:11:08;;;;;;;2.83;1.00;;;;;;;9.19;92.70;99628.47;5071234;28;20027;-89
2022/12/25 07:13:33;;;;;;;6.93;1.67;;;;;;;9.11;92.75;99640.66;5072449;28;20032;-89
2022/12/25 07:16:01;;;;;;;9.30;1.85;;;;;;;9.11;92.48;99624.34;5069393;28;20287;-89
2022/12/25 07:18:26;;;;;;;9.50;1.92;;;;;;;9.15;92.66;99630.06;5068130;28;20664;-89
2022/12/25 07:20:54;;;;;;;4.03;1.50;;;;;;;9.06;92.77;99610.66;5071471;28;20123;-89
2022/12/25 07:23:19;;;;;;;5.57;1.73;;;;;;;9.08;92.67;99593.03;5070650;28;20029;-89
2022/12/25 07:25:55;;;;;;;6.65;1.58;;;;;;;9.03;92.98;99584.81;5070740;28;20036;-89
2022/12/25 07:28:20;;;;;;;4.15;1.30;;;;;;;8.98;92.93;99580.16;5071191;28;20025;-90
2022/12/25 07:30:45;;;;;;;7.40;1.50;;;;;;;9.01;92.72;99586.97;5071049;28;20086;-89
2022/12/25 07:33:11;;;;;;;10.50;3.22;;;;;;;8.97;93.54;99602.19;5069954;28;20302;-89
2022/12/25 07:35:36;;;;;;;4.03;1.17;;;;;;;8.93;93.45;99599.13;5070667;28;20504;-90
2022/12/25 07:38:01;;;;;;;5.60;1.30;;;;;;;8.94;93.75;99581.75;5072625;28;20264;-89
2022/12/25 07:40:26;;;;;;;7.88;2.38;;;;;;;8.98;93.45;99585.59;5070242;28;20291;-89
2022/12/25 07:42:52;;;;;;;7.05;2.78;;;;;;;9.02;93.64;99568.75;5072284;28;20094;-89
2022/12/25 07:45:17;;;;;;;4.50;1.57;;;;;;;8.96;93.39;99560.56;5070344;28;20032;-89
2022/12/25 07:47:43;;;;;;;2.63;0.97;;;;;;;9.03;93.74;99571.22;5069524;28;20273;-90
2022/12/25 07:50:08;;;;;;;6.40;1.23;;;;;;;9.09;93.82;99577.53;5071939;28;20264;-90
2022/12/25 07:52:34;;;;;;;5.28;1.83;;;;;;;9.03;93.46;99563.03;5071879;28;20025;-94
2022/12/25 07:54:59;;;;;;;13.07;2.60;;;;;;;9.15;93.36;99556.63;5074499;28;20028;-93
2022/12/25 07:57:24;;;;;;;6.47;1.77;;;;;;;9.10;93.66;99549.25;5074044;28;20746;-89
2022/12/25 07:59:51;;;;;;;4.65;1.60;;;;;;;9.12;93.42;99555.25;5071624;28;20297;-93
2022/12/25 08:02:17;;;;;;;5.27;1.87;;;;;;;9.06;93.87;99539.97;5074889;28;20147;-89
2022/12/25 08:04:42;;;;;;;6.47;2.60;;;;;;;9.08;93.87;99543.25;5072011;28;20258;-91
2022/12/25 08:07:08;;;;;;;9.52;2.28;;;;;;;9.12;93.75;99538.91;5074484;28;20052;-91
2022/12/25 08:09:34;;;;;;;9.65;1.50;;;;;;;9.07;93.88;99536.19;5074410;28;20025;-95
2022/12/25 08:12:00;;;;;;;5.70;1.92;;;;;;;9.02;94.08;99533.41;5071254;28;20120;-91
2022/12/25 08:14:25;;;;;;;8.45;1.40;;;;;;;9.06;93.97;99539.97;5070141;28;20115;-93
2022/12/25 08:16:50;;;;;;;9.88;2.67;;;;;;;9.11;94.13;99548.97;5070906;28;20040;-92
2022/12/25 08:19:16;;;;;;;6.88;1.85;;;;;;;9.19;93.98;99555.03;5070988;28;20039;-94
2022/12/25 08:21:41;;;;;;;5.40;1.90;;;;;;;9.19;93.58;99557.75;5070805;28;20036;-92
2022/12/25 08:24:06;;;;;;;9.60;2.63;;;;;;;9.33;92.94;99558.13;5069429;28;20071;-92
2022/12/25 08:26:31;;;;;;;6.80;2.30;;;;;;;9.18;93.78;99558.81;5072093;28;20028;-94
2022/12/25 08:28:57;;;;;;;7.45;2.70;;;;;;;9.14;94.14;99558.53;5073304;28;20047;-94
2022/12/25 08:31:25;;;;;;;5.10;2.17;;;;;;;9.18;94.20;99537.88;5075145;28;20628;-94
2022/12/25 08:33:52;;;;;;;9.98;1.70;;;;;;;9.27;93.69;99551.00;5073657;28;20074;-91
2022/12/25 08:36:18;;;;;;;6.90;2.25;;;;;;;9.39;93.03;99569.84;5072755;28;20102;-94
2022/12/25 08:38:44;;;;;;;9.63;1.90;;;;;;;9.48;92.41;99572.91;5071323;28;20036;-88
2022/12/25 08:41:11;;;;;;;4.65;1.90;;;;;;;9.46;92.46;99554.09;5073276;28;20039;-94
2022/12/25 08:43:37;;;;;;;9.07;2.45;;;;;;;9.26;93.75;99549.34;5073913;28;20032;-95
2022/12/25 08:46:03;;;;;;;6.90;2.28;;;;;;;9.30;93.08;99539.59;5071964;28;20052;-95
2022/12/25 08:48:28;;;;;;;4.78;2.15;;;;;;;9.34;93.17;99535.25;5073631;28;20036;-94
2022/12/25 08:50:54;;;;;;;10.77;2.28;;;;;;;9.43;92.92;99522.00;5073874;28;20056;-93
2022/12/25 08:53:20;;;;;;;10.20;3.28;;;;;;;9.53;92.14;99532.94;5071485;28;20028;-93
2022/12/25 08:55:45;;;;;;;5.68;1.40;;;;;;;9.51;92.52;99542.44;5071429;28;20082;-93
2022/12/25 08:58:11;;;;;;;5.45;2.22;;;;;;;9.52;92.27;99557.69;5072272;28;20028;-89
2022/12/25 09:00:36;;;;;;;4.93;2.08;;;;;;;9.63;91.91;99597.50;5071317;28;20027;-89
2022/12/25 09:03:02;;;;;;;4.85;2.10;;;;;;;9.52;91.96;99602.03;5070560;28;20028;-93
2022/12/25 09:05:28;;;;;;;10.18;3.10;;;;;;;9.65;91.53;99600.78;5067476;28;20438;-92
2022/12/25 09:07:53;;;;;;;7.30;3.45;;;;;;;9.61;91.39;99604.28;5073146;28;20121;-91
2022/12/25 09:10:19;;;;;;;5.45;3.00;;;;;;;9.61;91.39;99607.81;5072995;28;20048;-92
2022/12/25 09:12:44;;;;;;;8.07;2.25;;;;;;;9.63;91.89;99592.06;5072768;28;20078;-93
2022/12/25 09:15:09;;;;;;;5.63;2.27;;;;;;;9.64;91.99;99571.91;5071248;28;20031;-92
2022/12/25 09:17:35;;;;;;;8.73;2.95;;;;;;;9.63;91.81;99570.28;5072836;28;20340;-92
2022/12/25 09:20:00;;;;;;;8.55;3.17;;;;;;;9.61;92.35;99550.66;5070632;28;20037;-91
2022/12/25 09:22:26;;;;;;;6.05;1.80;;;;;;;9.64;92.67;99550.13;5069065;28;20040;-86
2022/12/25 09:24:51;;;;;;;9.68;5.32;;;;;;;9.73;92.44;99541.47;5068941;28;20025;-94
2022/12/25 09:27:16;;;;;;;6.53;1.45;;;;;;;9.64;92.87;99536.53;5070504;28;20120;-88
2022/12/25 09:29:42;;;;;;;8.27;3.80;;;;;;;9.63;93.16;99539.50;5069105;28;20036;-88
2022/12/25 09:32:07;;;;;;;5.00;1.88;;;;;;;9.57;93.53;99527.78;5072439;28;20253;-91
2022/12/25 09:34:33;;;;;;;7.13;2.83;;;;;;;9.63;93.90;99525.91;5072761;28;20077;-90
2022/12/25 09:36:58;;;;;;;4.00;1.60;;;;;;;9.59;94.07;99541.94;5073417;28;20032;-95
2022/12/25 09:39:23;;;;;;;6.20;2.90;;;;;;;9.57;94.34;99555.81;5072313;28;20603;-92
2022/12/25 09:42:04;;;;;;;6.80;2.43;;;;;;;9.52;93.95;99558.50;5072585;28;20028;-93
2022/12/25 09:44:33;;;;;;;5.70;2.38;;;;;;;9.48;95.33;99562.03;5072423;28;20269;-88
2022/12/25 09:47:05;;;;;;;12.95;2.65;;;;;;;9.50;95.08;99576.19;5072684;28;20052;-86
2022/12/25 09:49:54;;;;;;;5.80;2.40;;;;;;;9.50;94.81;99559.88;5070832;28;20082;-85
2022/12/25 09:52:25;;;;;;;4.60;1.60;;;;;;;9.49;95.46;99569.09;5072459;28;20469;-90
2022/12/25 09:54:56;;;;;;;5.30;1.55;;;;;;;9.50;95.16;99577.00;5072489;28;20123;-85
2022/12/25 09:57:23;;;;;;;4.63;1.42;;;;;;;9.44;95.35;99576.16;5075068;28;20074;-89
2022/12/25 09:59:52;;;;;;;5.63;1.80;;;;;;;9.42;96.23;99574.75;5076853;28;20028;-90
2022/12/25 10:02:53;;;;;;;9.43;2.30;;;;;;;9.47;96.75;99588.41;5075215;28;20029;-94
2022/12/25 10:06:00;;;;;;;4.20;2.10;;;;;;;9.46;96.31;99582.16;5076033;28;20032;-96
2022/12/25 10:08:36;;;;;;;9.60;3.30;;;;;;;9.39;97.11;99581.56;5037980;28;20036;-83
2022/12/25 10:11:36;;;;;;;8.02;3.30;;;;;;;9.41;97.15;99576.69;5073136;28;20186;-84
2022/12/25 10:14:14;;;;;;;5.43;2.08;;;;;;;9.37;98.24;99556.50;5049591;28;20094;-85
2022/12/25 10:17:05;;;;;;;5.88;2.88;;;;;;;9.33;98.56;99549.97;5072200;28;20024;-84
2022/12/25 10:19:44;;;;;;;6.38;3.00;;;;;;;9.29;98.50;99533.34;5074142;28;20033;-85
2022/12/25 10:22:19;;;;;;;5.53;2.15;;;;;;;9.22;99.32;99535.44;5071879;28;20056;-83
2022/12/25 10:24:48;;;;;;;8.10;2.00;;;;;;;9.29;99.29;99541.50;5070924;28;20047;-84
2022/12/25 10:27:30;;;;;;;10.55;4.40;;;;;;;9.28;100.00;99533.59;5074392;28;20082;-84
2022/12/25 10:29:57;;;;;;;5.75;2.92;;;;;;;9.33;99.82;99528.19;5074018;28;20066;-83
2022/12/25 10:32:22;;;;;;;7.00;2.25;;;;;;;9.34;99.93;99518.94;5068573;28;20031;-84
2022/12/25 10:34:48;;;;;;;7.15;2.72;;;;;;;9.39;99.45;99494.50;5072382;28;20025;-83
2022/12/25 10:37:14;;;;;;;6.53;1.70;;;;;;;9.33;99.89;99479.22;5073332;28;20127;-83
2022/12/25 10:39:41;;;;;;;5.97;2.05;;;;;;;9.31;100.00;99470.50;5070918;28;20035;-84
2022/12/25 10:42:20;;;;;;;4.85;1.55;;;;;;;9.42;99.96;99474.06;5069072;28;20038;-85
2022/12/25 10:44:57;;;;;;;6.88;2.05;;;;;;;9.31;99.99;99482.22;5071996;28;20032;-79
2022/12/25 10:47:25;;;;;;;5.18;1.90;;;;;;;9.37;100.00;99480.34;5074947;28;20087;-84
2022/12/25 10:49:50;;;;;;;4.85;1.42;;;;;;;9.33;100.00;99481.94;5089470;28;20127;-85
2022/12/25 10:52:24;;;;;;;48.28;27.85;;;;;;;9.35;100.00;99468.91;5074522;28;20071;-87
2022/12/25 10:54:50;;;;;;;17.92;12.23;;;;;;;9.42;100.00;99476.81;5073819;28;20039;-85
2022/12/25 10:57:18;;;;;;;4.32;2.03;;;;;;;9.30;100.00;99483.28;5073386;28;20036;-83
2022/12/25 10:59:45;;;;;;;3.33;1.75;;;;;;;9.27;100.00;99480.28;5071693;28;20032;-91
2022/12/25 11:02:24;;;;;;;3.10;1.30;;;;;;;9.38;100.00;99487.41;5073483;28;20047;-85
2022/12/25 11:04:56;;;;;;;3.47;1.63;;;;;;;9.42;100.00;99466.75;5073793;28;20393;-83
2022/12/25 11:07:24;;;;;;;4.63;1.52;;;;;;;9.46;100.00;99467.84;5070866;28;20033;-83
2022/12/25 11:10:00;;;;;;;6.78;2.58;;;;;;;9.56;100.00;99467.06;5074253;28;20654;-83
2022/12/25 11:12:36;;;;;;;4.00;1.58;;;;;;;9.54;100.00;99463.00;5071372;28;20062;-81
2022/12/25 11:15:32;;;;;;;2.05;0.85;;;;;;;9.63;99.45;99458.69;5075433;28;20044;-85
2022/12/25 11:17:58;;;;;;;3.50;1.13;;;;;;;9.56;99.55;99460.81;5074726;28;20470;-85
2022/12/25 11:20:23;;;;;;;2.88;0.85;;;;;;;9.59;100.00;99460.28;5069546;28;20047;-85
2022/12/25 11:22:49;;;;;;;2.90;1.45;;;;;;;9.56;99.95;99463.53;5071003;28;20124;-86
2022/12/25 11:25:22;;;;;;;3.45;1.20;;;;;;;9.55;99.89;99454.56;5072668;28;20068;-81
2022/12/25 11:28:17;;;;;;;3.08;1.50;;;;;;;9.45;100.00;99455.34;5073346;28;20032;-85
2022/12/25 11:30:52;;;;;;;4.28;1.55;;;;;;;9.52;100.00;99449.66;5052155;28;20131;-80
2022/12/25 11:33:19;;;;;;;4.70;1.42;;;;;;;9.52;100.00;99424.34;5071780;28;20545;-81
2022/12/25 11:35:49;;;;;;;4.20;1.88;;;;;;;9.53;100.00;99418.63;5069596;28;20090;-80
2022/12/25 11:38:14;;;;;;;3.85;2.40;;;;;;;9.59;100.00;99405.84;5070208;28;20036;-82
2022/12/25 11:40:50;;;;;;;5.38;1.80;;;;;;;9.56;100.00;99396.31;5072972;28;20044;-81
2022/12/25 11:43:32;;;;;;;3.85;2.22;;;;;;;9.57;100.00;99386.25;5069506;28;20051;-85
2022/12/25 11:46:17;;;;;;;3.38;1.52;;;;;;;9.54;100.00;99371.28;5072063;28;20089;-79
2022/12/25 11:48:48;;;;;;;4.88;1.80;;;;;;;9.59;100.00;99370.47;5068485;28;20062;-82
2022/12/25 11:51:15;;;;;;;4.60;2.45;;;;;;;9.64;100.00;99358.81;5069070;28;20044;-80
2022/12/25 11:53:50;;;;;;;4.47;1.30;;;;;;;9.75;100.00;99344.13;5071778;28;20547;-80
2022/12/25 11:56:17;;;;;;;4.18;1.40;;;;;;;9.73;100.00;99342.75;5070805;28;20051;-81
2022/12/25 11:58:50;;;;;;;5.80;1.75;;;;;;;9.78;99.80;99331.88;5071429;28;20028;-80
2022/12/25 12:01:41;;;;;;;3.78;1.30;;;;;;;9.70;100.00;99344.13;5070325;28;20048;-80
2022/12/25 12:04:17;;;;;;;2.60;1.00;;;;;;;9.76;99.79;99339.50;5071484;28;20024;-81
2022/12/25 12:06:53;;;;;;;2.75;1.00;;;;;;;9.87;99.84;99341.13;5070572;28;20089;-81
2022/12/25 12:09:46;;;;;;;3.58;1.33;;;;;;;9.88;99.29;99339.22;5069435;28;20036;-82
2022/12/25 12:12:31;;;;;;;2.22;1.10;;;;;;;9.80;99.77;99335.16;5070452;28;20037;-84
2022/12/25 12:15:07;;;;;;;3.05;0.80;;;;;;;9.70;100.00;99322.34;5071417;28;20044;-81
2022/12/25 12:17:32;;;;;;;9.05;4.55;;;;;;;9.75;100.00;99307.91;5070833;28;20530;-83
2022/12/25 12:20:08;;;;;;;4.80;1.83;;;;;;;9.76;99.98;99318.50;5070950;28;20032;-85
2022/12/25 12:22:34;;;;;;;2.00;0.68;;;;;;;9.69;100.00;99329.69;5072954;28;20028;-81
2022/12/25 12:25:05;;;;;;;2.33;0.80;;;;;;;9.73;100.00;99321.78;5071452;28;20526;-79
2022/12/25 12:27:39;;;;;;;2.05;0.90;;;;;;;9.75;100.00;99300.56;5070852;28;20102;-82
2022/12/25 12:30:20;;;;;;;3.70;1.00;;;;;;;9.69;100.00;99298.91;5072245;28;20469;-83
2022/12/25 12:32:51;;;;;;;3.38;1.38;;;;;;;9.74;100.00;99298.09;5067559;28;20024;-83
2022/12/25 12:35:25;;;;;;;4.97;2.20;;;;;;;9.61;100.00;99292.09;5069383;28;20040;-81
2022/12/25 12:37:56;;;;;;;3.47;1.30;;;;;;;9.69;100.00;99288.84;5069599;28;20123;-81
2022/12/25 12:40:26;;;;;;;3.75;1.52;;;;;;;9.73;100.00;99304.63;5068794;28;20048;-81
2022/12/25 12:42:53;;;;;;;4.50;1.42;;;;;;;9.71;100.00;99307.63;5070426;28;20028;-82
2022/12/25 12:45:24;;;;;;;2.58;1.85;;;;;;;9.74;100.00;99298.09;5068135;28;20135;-82
2022/12/25 12:47:50;;;;;;;6.95;2.70;;;;;;;9.78;100.00;99299.19;5067840;28;20032;-81
2022/12/25 12:50:36;;;;;;;3.17;1.65;;;;;;;9.73;100.00;99299.19;5072783;28;20114;-86
2022/12/25 12:53:22;;;;;;;4.22;2.00;;;;;;;9.85;100.00;99301.63;5073238;28;20040;-87
2022/12/25 12:55:49;;;;;;;4.85;1.52;;;;;;;9.92;100.00;99307.66;5070013;28;20040;-89
2022/12/25 12:58:33;;;;;;;8.52;2.33;;;;;;;9.93;99.72;99296.47;5070400;28;20035;-87
2022/12/25 13:01:38;;;;;;;3.70;1.73;;;;;;;9.91;100.00;99287.75;5072633;28;20039;-87
2022/12/25 13:04:22;;;;;;;;;;;;;;;9.84;100.00;99287.22;5072746;28;20040;-91
2022/12/25 13:07:25;;;;;;;3.10;1.40;;;;;;;9.96;100.00;99281.50;5069207;28;19920;-89
2022/12/25 13:10:06;;;;;;;4.72;2.45;;;;;;;10.01;99.99;99280.69;5070849;28;20085;-90
2022/12/25 13:12:32;;;;;;;8.85;3.70;;;;;;;9.99;100.00;99270.06;5071059;28;20086;-87
2022/12/25 13:14:59;;;;;;;11.25;5.57;;;;;;;10.01;100.00;99264.34;5071912;28;20512;-88
2022/12/25 13:17:26;;;;;;;10.65;3.95;;;;;;;9.98;100.00;99259.44;5072781;28;20040;-87
2022/12/25 13:19:56;;;;;;;8.75;4.65;;;;;;;9.96;100.00;99261.63;5072849;28;20025;-84
2022/12/25 13:22:28;;;;;;;6.30;3.33;;;;;;;10.04;100.00;99269.25;5070823;28;20028;-87
2022/12/25 13:24:59;;;;;;;18.25;4.43;;;;;;;10.06;100.00;99267.06;5071541;28;20032;-86
2022/12/25 13:27:32;;;;;;;8.93;3.00;;;;;;;9.96;100.00;99257.00;5071056;28;20042;-86
2022/12/25 13:29:58;;;;;;;5.85;2.72;;;;;;;10.00;100.00;99257.28;5071923;28;20029;-86
2022/12/25 13:32:27;;;;;;;5.43;2.60;;;;;;;10.00;100.00;99257.28;5070904;28;20060;-86